sensor_id;sensor_type;location;lat;lon;timestamp;pressure;altitude;pressure_sealevel;temperature;humidity
77431;BME280;66498;48.564;19.272;2024-02-23T00:02:19;96109.38;;;6.67;100.00
77431;BME280;66498;48.564;19.272;2024-02-23T00:04:45;96106.53;;;6.68;100.00
77431;BME280;66498;48.564;19.272;2024-02-23T00:07:10;96097.13;;;6.67;100.00
77431;BME280;66498;48.564;19.272;2024-02-23T00:09:36;96098.69;;;6.68;100.00
77431;BME280;66498;48.564;19.272;2024-02-23T00:12:02;96101.88;;;6.70;100.00
77431;BME280;66498;48.564;19.272;2024-02-23T00:14:28;96099.72;;;6.67;100.00
77431;BME280;66498;48.564;19.272;2024-02-23T00:16:56;96101.09;;;6.70;100.00
77431;BME280;66498;48.564;19.272;2024-02-23T00:19:22;96096.69;;;6.58;100.00
77431;BME280;66498;48.564;19.272;2024-02-23T00:21:49;96088.06;;;6.70;100.00
77431;BME280;66498;48.564;19.272;2024-02-23T00:24:16;96090.09;;;6.68;100.00
77431;BME280;66498;48.564;19.272;2024-02-23T00:26:42;96085.00;;;6.61;100.00
77431;BME280;66498;48.564;19.272;2024-02-23T00:29:08;96087.63;;;6.61;100.00
77431;BME280;66498;48.564;19.272;2024-02-23T00:31:34;96089.69;;;6.59;100.00
77431;BME280;66498;48.564;19.272;2024-02-23T00:34:01;96088.41;;;6.61;100.00
77431;BME280;66498;48.564;19.272;2024-02-23T00:36:26;96080.03;;;6.59;100.00
77431;BME280;66498;48.564;19.272;2024-02-23T00:38:52;96082.28;;;6.68;100.00
77431;BME280;66498;48.564;19.272;2024-02-23T00:41:17;96080.38;;;6.63;100.00
77431;BME280;66498;48.564;19.272;2024-02-23T00:43:42;96086.38;;;6.63;100.00
77431;BME280;66498;48.564;19.272;2024-02-23T00:46:08;96077.19;;;6.61;100.00
77431;BME280;66498;48.564;19.272;2024-02-23T00:48:34;96083.19;;;6.61;100.00
77431;BME280;66498;48.564;19.272;2024-02-23T00:51:02;96086.38;;;6.63;100.00
77431;BME280;66498;48.564;19.272;2024-02-23T00:53:28;96088.84;;;6.70;100.00
77431;BME280;66498;48.564;19.272;2024-02-23T00:55:54;96084.09;;;6.67;100.00
77431;BME280;66498;48.564;19.272;2024-02-23T00:58:19;96085.00;;;6.73;100.00
77431;BME280;66498;48.564;19.272;2024-02-23T01:00:45;96086.69;;;6.67;100.00
77431;BME280;66498;48.564;19.272;2024-02-23T01:03:10;96078.16;;;6.72;100.00
77431;BME280;66498;48.564;19.272;2024-02-23T01:05:36;96079.66;;;6.68;100.00
77431;BME280;66498;48.564;19.272;2024-02-23T01:08:02;96077.28;;;6.66;100.00
77431;BME280;66498;48.564;19.272;2024-02-23T01:10:28;96081.81;;;6.71;100.00
77431;BME280;66498;48.564;19.272;2024-02-23T01:12:53;96075.00;;;6.70;100.00
77431;BME280;66498;48.564;19.272;2024-02-23T01:15:19;96076.47;;;6.66;100.00
77431;BME280;66498;48.564;19.272;2024-02-23T01:17:47;96067.41;;;6.68;100.00
77431;BME280;66498;48.564;19.272;2024-02-23T01:20:13;96065.91;;;6.72;100.00
77431;BME280;66498;48.564;19.272;2024-02-23T01:22:38;96062.19;;;6.68;100.00
77431;BME280;66498;48.564;19.272;2024-02-23T01:25:04;96070.41;;;6.60;100.00
77431;BME280;66498;48.564;19.272;2024-02-23T01:27:29;96067.66;;;6.67;100.00
77431;BME280;66498;48.564;19.272;2024-02-23T01:29:55;96064.34;;;6.71;100.00
77431;BME280;66498;48.564;19.272;2024-02-23T01:32:20;96061.97;;;6.70;100.00
77431;BME280;66498;48.564;19.272;2024-02-23T01:34:46;96061.47;;;6.56;100.00
77431;BME280;66498;48.564;19.272;2024-02-23T01:37:11;96063.81;;;6.57;100.00
77431;BME280;66498;48.564;19.272;2024-02-23T01:39:37;96054.31;;;6.51;100.00
77431;BME280;66498;48.564;19.272;2024-02-23T01:42:02;96050.13;;;6.50;100.00
77431;BME280;66498;48.564;19.272;2024-02-23T01:44:28;96055.66;;;6.54;100.00
77431;BME280;66498;48.564;19.272;2024-02-23T01:46:53;96054.44;;;6.45;100.00
77431;BME280;66498;48.564;19.272;2024-02-23T01:49:20;96054.88;;;6.53;100.00
77431;BME280;66498;48.564;19.272;2024-02-23T01:51:45;96048.69;;;6.43;100.00
77431;BME280;66498;48.564;19.272;2024-02-23T01:54:11;96051.38;;;6.48;100.00
77431;BME280;66498;48.564;19.272;2024-02-23T01:56:37;96057.38;;;6.48;100.00
77431;BME280;66498;48.564;19.272;2024-02-23T01:59:04;96039.03;;;6.43;100.00
77431;BME280;66498;48.564;19.272;2024-02-23T02:01:31;96040.53;;;6.39;100.00
77431;BME280;66498;48.564;19.272;2024-02-23T02:03:58;96043.94;;;6.39;100.00
77431;BME280;66498;48.564;19.272;2024-02-23T02:06:24;96046.66;;;6.33;100.00
77431;BME280;66498;48.564;19.272;2024-02-23T02:08:50;96040.78;;;6.26;100.00
77431;BME280;66498;48.564;19.272;2024-02-23T02:11:15;96045.66;;;6.22;100.00
77431;BME280;66498;48.564;19.272;2024-02-23T02:13:41;96046.59;;;6.16;100.00
77431;BME280;66498;48.564;19.272;2024-02-23T02:16:06;96042.94;;;6.17;100.00
77431;BME280;66498;48.564;19.272;2024-02-23T02:18:32;96046.47;;;6.11;100.00
77431;BME280;66498;48.564;19.272;2024-02-23T02:20:57;96044.69;;;6.11;100.00
77431;BME280;66498;48.564;19.272;2024-02-23T02:23:24;96041.38;;;6.04;100.00
77431;BME280;66498;48.564;19.272;2024-02-23T02:25:58;96043.88;;;5.99;100.00
77431;BME280;66498;48.564;19.272;2024-02-23T02:28:25;96047.16;;;6.06;100.00
77431;BME280;66498;48.564;19.272;2024-02-23T02:30:53;96047.94;;;6.07;100.00
77431;BME280;66498;48.564;19.272;2024-02-23T02:33:19;96051.69;;;5.99;100.00
77431;BME280;66498;48.564;19.272;2024-02-23T02:35:45;96046.25;;;6.01;100.00
77431;BME280;66498;48.564;19.272;2024-02-23T02:38:11;96041.63;;;5.91;100.00
77431;BME280;66498;48.564;19.272;2024-02-23T02:40:37;96047.72;;;5.97;100.00
77431;BME280;66498;48.564;19.272;2024-02-23T02:43:03;96043.31;;;5.85;100.00
77431;BME280;66498;48.564;19.272;2024-02-23T02:45:29;96040.59;;;5.92;100.00
77431;BME280;66498;48.564;19.272;2024-02-23T02:47:54;96039.00;;;5.91;100.00
77431;BME280;66498;48.564;19.272;2024-02-23T02:50:22;96039.59;;;5.93;100.00
77431;BME280;66498;48.564;19.272;2024-02-23T02:52:47;96038.88;;;5.86;100.00
77431;BME280;66498;48.564;19.272;2024-02-23T02:55:13;96047.72;;;5.85;100.00
77431;BME280;66498;48.564;19.272;2024-02-23T02:57:38;96042.97;;;5.82;100.00
77431;BME280;66498;48.564;19.272;2024-02-23T03:00:05;96039.38;;;5.95;100.00
77431;BME280;66498;48.564;19.272;2024-02-23T03:02:31;96041.94;;;5.83;100.00
77431;BME280;66498;48.564;19.272;2024-02-23T03:04:57;96033.22;;;5.77;100.00
77431;BME280;66498;48.564;19.272;2024-02-23T03:07:23;96039.13;;;5.73;100.00
77431;BME280;66498;48.564;19.272;2024-02-23T03:09:48;96047.94;;;5.72;100.00
77431;BME280;66498;48.564;19.272;2024-02-23T03:12:16;96044.31;;;5.73;100.00
77431;BME280;66498;48.564;19.272;2024-02-23T03:14:41;96047.63;;;5.68;100.00
77431;BME280;66498;48.564;19.272;2024-02-23T03:17:07;96049.19;;;5.57;100.00
77431;BME280;66498;48.564;19.272;2024-02-23T03:19:33;96046.13;;;5.60;100.00
77431;BME280;66498;48.564;19.272;2024-02-23T03:21:59;96045.13;;;5.61;100.00
77431;BME280;66498;48.564;19.272;2024-02-23T03:24:24;96048.28;;;5.63;100.00
77431;BME280;66498;48.564;19.272;2024-02-23T03:26:50;96046.59;;;5.57;100.00
77431;BME280;66498;48.564;19.272;2024-02-23T03:29:15;96050.00;;;5.58;100.00
77431;BME280;66498;48.564;19.272;2024-02-23T03:31:41;96046.69;;;5.62;100.00
77431;BME280;66498;48.564;19.272;2024-02-23T03:34:06;96048.41;;;5.68;100.00
77431;BME280;66498;48.564;19.272;2024-02-23T03:36:33;96053.13;;;5.60;100.00
77431;BME280;66498;48.564;19.272;2024-02-23T03:39:00;96051.31;;;5.60;100.00
77431;BME280;66498;48.564;19.272;2024-02-23T03:41:25;96052.13;;;5.61;100.00
77431;BME280;66498;48.564;19.272;2024-02-23T03:43:51;96050.53;;;5.60;100.00
77431;BME280;66498;48.564;19.272;2024-02-23T03:46:16;96057.00;;;5.57;100.00
77431;BME280;66498;48.564;19.272;2024-02-23T03:48:43;96048.28;;;5.63;100.00
77431;BME280;66498;48.564;19.272;2024-02-23T03:51:08;96045.88;;;5.50;100.00
77431;BME280;66498;48.564;19.272;2024-02-23T03:53:34;96047.94;;;5.48;100.00
77431;BME280;66498;48.564;19.272;2024-02-23T03:56:00;96048.97;;;5.47;100.00
77431;BME280;66498;48.564;19.272;2024-02-23T03:58:25;96051.22;;;5.43;100.00
77431;BME280;66498;48.564;19.272;2024-02-23T04:00:51;96047.81;;;5.43;100.00
77431;BME280;66498;48.564;19.272;2024-02-23T04:03:17;96051.56;;;5.47;100.00
77431;BME280;66498;48.564;19.272;2024-02-23T04:05:42;96050.53;;;5.48;100.00
77431;BME280;66498;48.564;19.272;2024-02-23T04:08:08;96049.84;;;5.41;100.00
77431;BME280;66498;48.564;19.272;2024-02-23T04:10:33;96054.50;;;5.51;100.00
77431;BME280;66498;48.564;19.272;2024-02-23T04:13:00;96055.41;;;5.44;100.00
77431;BME280;66498;48.564;19.272;2024-02-23T04:15:26;96054.97;;;5.48;100.00
77431;BME280;66498;48.564;19.272;2024-02-23T04:17:51;96063.75;;;5.46;100.00
77431;BME280;66498;48.564;19.272;2024-02-23T04:20:17;96056.44;;;5.55;100.00
77431;BME280;66498;48.564;19.272;2024-02-23T04:22:43;96063.91;;;5.52;100.00
77431;BME280;66498;48.564;19.272;2024-02-23T04:25:08;96064.00;;;5.45;100.00
77431;BME280;66498;48.564;19.272;2024-02-23T04:27:34;96064.91;;;5.51;100.00
77431;BME280;66498;48.564;19.272;2024-02-23T04:29:59;96062.06;;;5.52;100.00
77431;BME280;66498;48.564;19.272;2024-02-23T04:32:25;96060.16;;;5.59;100.00
77431;BME280;66498;48.564;19.272;2024-02-23T04:34:51;96062.88;;;5.53;100.00
77431;BME280;66498;48.564;19.272;2024-02-23T04:37:16;96057.66;;;5.53;100.00
77431;BME280;66498;48.564;19.272;2024-02-23T04:39:43;96056.88;;;5.52;100.00
77431;BME280;66498;48.564;19.272;2024-02-23T04:42:09;96053.38;;;5.58;100.00
77431;BME280;66498;48.564;19.272;2024-02-23T04:44:35;96060.06;;;5.54;100.00
77431;BME280;66498;48.564;19.272;2024-02-23T04:47:01;96054.28;;;5.52;100.00
77431;BME280;66498;48.564;19.272;2024-02-23T04:49:27;96056.97;;;5.45;100.00
77431;BME280;66498;48.564;19.272;2024-02-23T04:51:53;96051.31;;;5.49;100.00
77431;BME280;66498;48.564;19.272;2024-02-23T04:54:18;96053.81;;;5.43;100.00
77431;BME280;66498;48.564;19.272;2024-02-23T04:56:44;96057.44;;;5.42;100.00
77431;BME280;66498;48.564;19.272;2024-02-23T04:59:09;96046.13;;;5.49;100.00
77431;BME280;66498;48.564;19.272;2024-02-23T05:01:36;96049.75;;;5.48;100.00
77431;BME280;66498;48.564;19.272;2024-02-23T05:04:02;96056.44;;;5.55;100.00
77431;BME280;66498;48.564;19.272;2024-02-23T05:06:29;96051.81;;;5.57;100.00
77431;BME280;66498;48.564;19.272;2024-02-23T05:08:54;96056.88;;;5.52;100.00
77431;BME280;66498;48.564;19.272;2024-02-23T05:11:20;96058.59;;;5.58;100.00
77431;BME280;66498;48.564;19.272;2024-02-23T05:13:45;96060.16;;;5.48;100.00
77431;BME280;66498;48.564;19.272;2024-02-23T05:16:11;96056.78;;;5.47;100.00
77431;BME280;66498;48.564;19.272;2024-02-23T05:18:38;96069.31;;;5.50;100.00
77431;BME280;66498;48.564;19.272;2024-02-23T05:21:04;96065.38;;;5.48;100.00
77431;BME280;66498;48.564;19.272;2024-02-23T05:23:30;96056.31;;;5.62;100.00
77431;BME280;66498;48.564;19.272;2024-02-23T05:25:55;96052.34;;;5.59;100.00
77431;BME280;66498;48.564;19.272;2024-02-23T05:28:21;96058.13;;;5.61;100.00
77431;BME280;66498;48.564;19.272;2024-02-23T05:30:46;96057.56;;;5.59;100.00
77431;BME280;66498;48.564;19.272;2024-02-23T05:33:12;96060.94;;;5.60;100.00
77431;BME280;66498;48.564;19.272;2024-02-23T05:35:38;96063.78;;;5.58;100.00
77431;BME280;66498;48.564;19.272;2024-02-23T05:38:03;96064.34;;;5.60;100.00
77431;BME280;66498;48.564;19.272;2024-02-23T05:40:31;96061.72;;;5.60;100.00
77431;BME280;66498;48.564;19.272;2024-02-23T05:42:58;96065.25;;;5.66;100.00
77431;BME280;66498;48.564;19.272;2024-02-23T05:45:23;96064.00;;;5.57;100.00
77431;BME280;66498;48.564;19.272;2024-02-23T05:47:49;96059.72;;;5.62;100.00
77431;BME280;66498;48.564;19.272;2024-02-23T05:50:14;96068.88;;;5.65;100.00
77431;BME280;66498;48.564;19.272;2024-02-23T05:52:40;96069.19;;;5.57;100.00
77431;BME280;66498;48.564;19.272;2024-02-23T05:55:05;96077.72;;;5.64;100.00
77431;BME280;66498;48.564;19.272;2024-02-23T05:57:31;96072.53;;;5.64;100.00
77431;BME280;66498;48.564;19.272;2024-02-23T05:59:56;96074.53;;;5.62;100.00
77431;BME280;66498;48.564;19.272;2024-02-23T06:02:22;96075.91;;;5.64;100.00
77431;BME280;66498;48.564;19.272;2024-02-23T06:04:48;96077.16;;;5.62;100.00
77431;BME280;66498;48.564;19.272;2024-02-23T06:07:15;96072.63;;;5.69;100.00
77431;BME280;66498;48.564;19.272;2024-02-23T06:09:43;96085.06;;;5.67;100.00
77431;BME280;66498;48.564;19.272;2024-02-23T06:12:09;96090.84;;;5.69;100.00
77431;BME280;66498;48.564;19.272;2024-02-23T06:14:35;96091.53;;;5.64;100.00
77431;BME280;66498;48.564;19.272;2024-02-23T06:17:01;96086.88;;;5.66;100.00
77431;BME280;66498;48.564;19.272;2024-02-23T06:19:27;96091.28;;;5.66;100.00
77431;BME280;66498;48.564;19.272;2024-02-23T06:21:53;96092.56;;;5.75;100.00
77431;BME280;66498;48.564;19.272;2024-02-23T06:24:19;96099.00;;;5.73;100.00
77431;BME280;66498;48.564;19.272;2024-02-23T06:26:45;96098.66;;;5.81;100.00
77431;BME280;66498;48.564;19.272;2024-02-23T06:29:11;96103.53;;;5.77;100.00
77431;BME280;66498;48.564;19.272;2024-02-23T06:31:38;96101.25;;;5.81;100.00
77431;BME280;66498;48.564;19.272;2024-02-23T06:34:07;96100.94;;;5.89;100.00
77431;BME280;66498;48.564;19.272;2024-02-23T06:36:33;96101.50;;;5.79;100.00
77431;BME280;66498;48.564;19.272;2024-02-23T06:38:59;96101.38;;;5.86;100.00
77431;BME280;66498;48.564;19.272;2024-02-23T06:41:24;96102.97;;;5.87;100.00
77431;BME280;66498;48.564;19.272;2024-02-23T06:43:50;96099.22;;;5.83;100.00
77431;BME280;66498;48.564;19.272;2024-02-23T06:46:18;96097.69;;;5.93;100.00
77431;BME280;66498;48.564;19.272;2024-02-23T06:48:46;96102.66;;;5.95;100.00
77431;BME280;66498;48.564;19.272;2024-02-23T06:51:11;96110.50;;;5.95;100.00
77431;BME280;66498;48.564;19.272;2024-02-23T06:53:37;96103.09;;;5.92;100.00
77431;BME280;66498;48.564;19.272;2024-02-23T06:56:03;96109.66;;;5.83;100.00
77431;BME280;66498;48.564;19.272;2024-02-23T06:58:29;96112.16;;;5.89;100.00
77431;BME280;66498;48.564;19.272;2024-02-23T07:00:54;96116.25;;;5.97;100.00
77431;BME280;66498;48.564;19.272;2024-02-23T07:03:20;96103.91;;;5.92;100.00
77431;BME280;66498;48.564;19.272;2024-02-23T07:05:45;96111.13;;;5.90;100.00
77431;BME280;66498;48.564;19.272;2024-02-23T07:08:12;96110.25;;;5.97;100.00
77431;BME280;66498;48.564;19.272;2024-02-23T07:10:38;96098.81;;;5.98;100.00
77431;BME280;66498;48.564;19.272;2024-02-23T07:13:04;96104.72;;;6.05;100.00
77431;BME280;66498;48.564;19.272;2024-02-23T07:15:29;96102.56;;;6.02;100.00
77431;BME280;66498;48.564;19.272;2024-02-23T07:17:55;96108.56;;;6.02;100.00
77431;BME280;66498;48.564;19.272;2024-02-23T07:20:22;96116.25;;;6.09;100.00
77431;BME280;66498;48.564;19.272;2024-02-23T07:22:47;96105.50;;;6.05;100.00
77431;BME280;66498;48.564;19.272;2024-02-23T07:25:17;96120.78;;;6.13;100.00
77431;BME280;66498;48.564;19.272;2024-02-23T07:27:43;96125.66;;;6.10;100.00
77431;BME280;66498;48.564;19.272;2024-02-23T07:30:09;96122.59;;;6.13;100.00
77431;BME280;66498;48.564;19.272;2024-02-23T07:32:35;96124.16;;;6.14;100.00
77431;BME280;66498;48.564;19.272;2024-02-23T07:35:00;96125.66;;;6.22;100.00
77431;BME280;66498;48.564;19.272;2024-02-23T07:37:26;96126.34;;;6.29;100.00
77431;BME280;66498;48.564;19.272;2024-02-23T07:39:52;96119.06;;;6.31;100.00
77431;BME280;66498;48.564;19.272;2024-02-23T07:42:18;96107.16;;;6.35;100.00
77431;BME280;66498;48.564;19.272;2024-02-23T07:44:44;96107.50;;;6.38;100.00
77431;BME280;66498;48.564;19.272;2024-02-23T07:47:11;96113.72;;;6.49;100.00
77431;BME280;66498;48.564;19.272;2024-02-23T07:49:36;96104.75;;;6.57;100.00
77431;BME280;66498;48.564;19.272;2024-02-23T07:52:02;96111.44;;;6.53;100.00
77431;BME280;66498;48.564;19.272;2024-02-23T07:54:29;96115.00;;;6.75;100.00
77431;BME280;66498;48.564;19.272;2024-02-23T07:56:54;96107.78;;;6.66;100.00
77431;BME280;66498;48.564;19.272;2024-02-23T07:59:20;96093.47;;;6.68;100.00
77431;BME280;66498;48.564;19.272;2024-02-23T08:01:45;96099.72;;;6.67;100.00
77431;BME280;66498;48.564;19.272;2024-02-23T08:04:12;96105.28;;;6.71;100.00
77431;BME280;66498;48.564;19.272;2024-02-23T08:06:39;96106.72;;;6.78;100.00
77431;BME280;66498;48.564;19.272;2024-02-23T08:09:04;96111.75;;;6.68;100.00
77431;BME280;66498;48.564;19.272;2024-02-23T08:11:30;96104.16;;;6.67;100.00
77431;BME280;66498;48.564;19.272;2024-02-23T08:13:56;96104.56;;;6.75;100.00
77431;BME280;66498;48.564;19.272;2024-02-23T08:16:21;96105.28;;;6.71;100.00
77431;BME280;66498;48.564;19.272;2024-02-23T08:18:47;96113.34;;;6.69;100.00
77431;BME280;66498;48.564;19.272;2024-02-23T08:21:12;96122.16;;;6.80;100.00
77431;BME280;66498;48.564;19.272;2024-02-23T08:23:38;96126.34;;;6.81;100.00
77431;BME280;66498;48.564;19.272;2024-02-23T08:26:07;96125.22;;;6.77;100.00
77431;BME280;66498;48.564;19.272;2024-02-23T08:28:33;96127.25;;;6.75;100.00
77431;BME280;66498;48.564;19.272;2024-02-23T08:30:59;96126.84;;;6.66;100.00
77431;BME280;66498;48.564;19.272;2024-02-23T08:33:28;96135.41;;;6.78;100.00
77431;BME280;66498;48.564;19.272;2024-02-23T08:35:53;96142.00;;;6.81;100.00
77431;BME280;66498;48.564;19.272;2024-02-23T08:38:19;96132.59;;;6.80;100.00
77431;BME280;66498;48.564;19.272;2024-02-23T08:40:45;96130.19;;;6.90;100.00
77431;BME280;66498;48.564;19.272;2024-02-23T08:43:11;96128.09;;;6.92;100.00
77431;BME280;66498;48.564;19.272;2024-02-23T08:45:37;96133.03;;;6.77;100.00
77431;BME280;66498;48.564;19.272;2024-02-23T08:48:03;96134.16;;;6.81;100.00
77431;BME280;66498;48.564;19.272;2024-02-23T08:50:32;96134.94;;;6.81;100.00
77431;BME280;66498;48.564;19.272;2024-02-23T08:52:57;96135.53;;;6.83;100.00
77431;BME280;66498;48.564;19.272;2024-02-23T08:55:23;96139.25;;;6.76;100.00
77431;BME280;66498;48.564;19.272;2024-02-23T08:57:48;96137.56;;;6.81;100.00
77431;BME280;66498;48.564;19.272;2024-02-23T09:00:14;96144.03;;;6.79;100.00
77431;BME280;66498;48.564;19.272;2024-02-23T09:02:40;96143.94;;;6.74;100.00
77431;BME280;66498;48.564;19.272;2024-02-23T09:05:08;96146.09;;;6.77;100.00
77431;BME280;66498;48.564;19.272;2024-02-23T09:07:34;96147.09;;;6.76;100.00
77431;BME280;66498;48.564;19.272;2024-02-23T09:09:59;96158.22;;;6.83;100.00
77431;BME280;66498;48.564;19.272;2024-02-23T09:12:25;96154.47;;;6.79;100.00
77431;BME280;66498;48.564;19.272;2024-02-23T09:14:51;96153.31;;;6.86;100.00
77431;BME280;66498;48.564;19.272;2024-02-23T09:17:17;96151.03;;;6.90;100.00
77431;BME280;66498;48.564;19.272;2024-02-23T09:19:44;96153.66;;;6.78;100.00
77431;BME280;66498;48.564;19.272;2024-02-23T09:22:09;96146.84;;;6.89;100.00
77431;BME280;66498;48.564;19.272;2024-02-23T09:24:35;96156.16;;;6.85;100.00
77431;BME280;66498;48.564;19.272;2024-02-23T09:27:04;96156.72;;;6.87;100.00
77431;BME280;66498;48.564;19.272;2024-02-23T09:29:30;96158.59;;;7.03;100.00
77431;BME280;66498;48.564;19.272;2024-02-23T09:31:55;96167.97;;;7.16;100.00
77431;BME280;66498;48.564;19.272;2024-02-23T09:34:22;96153.47;;;7.08;100.00
77431;BME280;66498;48.564;19.272;2024-02-23T09:36:48;96157.66;;;7.09;100.00
77431;BME280;66498;48.564;19.272;2024-02-23T09:39:13;96159.16;;;7.05;100.00
77431;BME280;66498;48.564;19.272;2024-02-23T09:41:39;96159.34;;;7.16;100.00
77431;BME280;66498;48.564;19.272;2024-02-23T09:44:05;96166.69;;;7.30;100.00
77431;BME280;66498;48.564;19.272;2024-02-23T09:46:33;96164.16;;;7.35;100.00
77431;BME280;66498;48.564;19.272;2024-02-23T09:49:00;96173.16;;;7.28;100.00
77431;BME280;66498;48.564;19.272;2024-02-23T09:51:26;96172.03;;;7.24;100.00
77431;BME280;66498;48.564;19.272;2024-02-23T09:53:52;96175.69;;;7.40;100.00
77431;BME280;66498;48.564;19.272;2024-02-23T09:56:18;96180.56;;;7.48;100.00
77431;BME280;66498;48.564;19.272;2024-02-23T09:58:46;96182.09;;;7.32;100.00
77431;BME280;66498;48.564;19.272;2024-02-23T10:01:21;96181.09;;;7.50;100.00
77431;BME280;66498;48.564;19.272;2024-02-23T10:03:51;96173.00;;;7.34;100.00
77431;BME280;66498;48.564;19.272;2024-02-23T10:06:17;96169.88;;;7.49;100.00
77431;BME280;66498;48.564;19.272;2024-02-23T10:08:42;96174.00;;;7.62;100.00
77431;BME280;66498;48.564;19.272;2024-02-23T10:11:08;96177.38;;;7.46;100.00
77431;BME280;66498;48.564;19.272;2024-02-23T10:13:34;96180.59;;;7.36;100.00
77431;BME280;66498;48.564;19.272;2024-02-23T10:15:59;96170.00;;;7.43;100.00
77431;BME280;66498;48.564;19.272;2024-02-23T10:18:25;96174.91;;;7.39;100.00
77431;BME280;66498;48.564;19.272;2024-02-23T10:20:51;96172.97;;;7.63;100.00
77431;BME280;66498;48.564;19.272;2024-02-23T10:23:18;96185.00;;;7.47;100.00
77431;BME280;66498;48.564;19.272;2024-02-23T10:25:45;96176.66;;;7.50;100.00
77431;BME280;66498;48.564;19.272;2024-02-23T10:28:10;96180.44;;;7.43;100.00
77431;BME280;66498;48.564;19.272;2024-02-23T10:30:37;96193.63;;;7.48;100.00
77431;BME280;66498;48.564;19.272;2024-02-23T10:33:05;96192.13;;;7.52;100.00
77431;BME280;66498;48.564;19.272;2024-02-23T10:35:31;96197.94;;;7.42;100.00
77431;BME280;66498;48.564;19.272;2024-02-23T10:37:58;96201.25;;;7.38;100.00
77431;BME280;66498;48.564;19.272;2024-02-23T10:40:24;96208.63;;;7.41;100.00
77431;BME280;66498;48.564;19.272;2024-02-23T10:42:56;96207.22;;;7.50;100.00
77431;BME280;66498;48.564;19.272;2024-02-23T10:45:22;96199.59;;;7.20;100.00
77431;BME280;66498;48.564;19.272;2024-02-23T10:47:48;96202.41;;;7.58;100.00
77431;BME280;66498;48.564;19.272;2024-02-23T10:50:14;96209.47;;;7.58;100.00
77431;BME280;66498;48.564;19.272;2024-02-23T10:52:44;96211.38;;;7.34;100.00
77431;BME280;66498;48.564;19.272;2024-02-23T10:55:10;96208.25;;;7.49;100.00
77431;BME280;66498;48.564;19.272;2024-02-23T10:57:36;96201.66;;;7.46;100.00
77431;BME280;66498;48.564;19.272;2024-02-23T11:00:02;96208.69;;;7.57;100.00
77431;BME280;66498;48.564;19.272;2024-02-23T11:02:33;96211.47;;;7.68;100.00
77431;BME280;66498;48.564;19.272;2024-02-23T11:05:02;96212.75;;;7.53;100.00
77431;BME280;66498;48.564;19.272;2024-02-23T11:07:30;96212.31;;;7.73;100.00
77431;BME280;66498;48.564;19.272;2024-02-23T11:10:02;96218.91;;;7.76;100.00
77431;BME280;66498;48.564;19.272;2024-02-23T11:12:29;96215.97;;;7.72;100.00
77431;BME280;66498;48.564;19.272;2024-02-23T11:14:59;96222.84;;;7.62;100.00
77431;BME280;66498;48.564;19.272;2024-02-23T11:17:30;96219.63;;;7.71;100.00
77431;BME280;66498;48.564;19.272;2024-02-23T11:19:56;96224.75;;;7.66;100.00
77431;BME280;66498;48.564;19.272;2024-02-23T11:22:32;96223.69;;;7.96;100.00
77431;BME280;66498;48.564;19.272;2024-02-23T11:25:03;96224.06;;;8.04;100.00
77431;BME280;66498;48.564;19.272;2024-02-23T11:27:33;96232.94;;;8.03;100.00
77431;BME280;66498;48.564;19.272;2024-02-23T11:32:43;96231.59;;;8.01;100.00
77431;BME280;66498;48.564;19.272;2024-02-23T11:35:11;96230.75;;;7.95;100.00
77431;BME280;66498;48.564;19.272;2024-02-23T11:37:56;96228.66;;;7.97;100.00
77431;BME280;66498;48.564;19.272;2024-02-23T11:40:30;96233.41;;;8.00;100.00
77431;BME280;66498;48.564;19.272;2024-02-23T11:42:56;96239.91;;;7.98;100.00
77431;BME280;66498;48.564;19.272;2024-02-23T11:45:21;96240.47;;;8.00;100.00
77431;BME280;66498;48.564;19.272;2024-02-23T11:47:47;96237.13;;;8.04;100.00
77431;BME280;66498;48.564;19.272;2024-02-23T11:50:13;96229.16;;;8.11;100.00
77431;BME280;66498;48.564;19.272;2024-02-23T11:52:45;96230.44;;;8.09;100.00
77431;BME280;66498;48.564;19.272;2024-02-23T11:55:10;96235.19;;;7.95;100.00
77431;BME280;66498;48.564;19.272;2024-02-23T11:57:38;96240.16;;;8.13;100.00
77431;BME280;66498;48.564;19.272;2024-02-23T12:00:04;96235.66;;;8.09;100.00
77431;BME280;66498;48.564;19.272;2024-02-23T12:02:33;96249.41;;;8.04;100.00
77431;BME280;66498;48.564;19.272;2024-02-23T12:04:58;96250.16;;;8.16;100.00
77431;BME280;66498;48.564;19.272;2024-02-23T12:07:24;96255.91;;;8.18;100.00
77431;BME280;66498;48.564;19.272;2024-02-23T12:09:54;96260.00;;;8.26;100.00
77431;BME280;66498;48.564;19.272;2024-02-23T12:12:20;96254.03;;;8.30;100.00
77431;BME280;66498;48.564;19.272;2024-02-23T12:14:45;96269.16;;;8.28;100.00
77431;BME280;66498;48.564;19.272;2024-02-23T12:17:11;96260.66;;;8.04;100.00
77431;BME280;66498;48.564;19.272;2024-02-23T12:19:40;96256.88;;;7.95;100.00
77431;BME280;66498;48.564;19.272;2024-02-23T12:22:06;96256.19;;;8.34;100.00
77431;BME280;66498;48.564;19.272;2024-02-23T12:24:32;96267.63;;;8.44;100.00
77431;BME280;66498;48.564;19.272;2024-02-23T12:26:59;96262.38;;;8.44;100.00
77431;BME280;66498;48.564;19.272;2024-02-23T12:29:24;96274.16;;;8.30;100.00
77431;BME280;66498;48.564;19.272;2024-02-23T12:31:50;96268.78;;;8.37;100.00
77431;BME280;66498;48.564;19.272;2024-02-23T12:34:16;96271.28;;;8.43;100.00
77431;BME280;66498;48.564;19.272;2024-02-23T12:36:43;96273.13;;;8.14;100.00
77431;BME280;66498;48.564;19.272;2024-02-23T12:39:08;96267.97;;;8.02;100.00
77431;BME280;66498;48.564;19.272;2024-02-23T12:41:34;96278.75;;;8.06;100.00
77431;BME280;66498;48.564;19.272;2024-02-23T12:43:59;96287.97;;;7.97;100.00
77431;BME280;66498;48.564;19.272;2024-02-23T12:46:25;96281.06;;;8.19;100.00
77431;BME280;66498;48.564;19.272;2024-02-23T12:48:51;96291.69;;;8.29;100.00